Terminal Aerodrome Forecast
Issued by NWS

Home | Current Version | Previous Version | Text Only | Print | Product List | Glossary On
Versions: 1 2 3 4 5 6 7 8 9 10 11 12 13 14
000
FTUS45 KRIW 241123
TAFCPR
TAF
KCPR 241123Z 2412/2512 05011KT P6SM SKC
     FM241700 10007KT P6SM SKC
     FM250100 10011KT P6SM FEW100
     FM250900 VRB06KT P6SM SKC=

USA.gov is the U.S. government's official web portal to all federal, state and local government web resources and services.